createdAt,value
2023-05-21T00:00:27.848Z,94844.00
2023-05-21T00:01:27.919Z,94842.00
2023-05-21T00:02:27.975Z,94842.00
2023-05-21T00:03:28.108Z,94842.00
2023-05-21T00:04:28.052Z,94842.00
2023-05-21T00:05:28.040Z,94844.00
2023-05-21T00:06:28.198Z,94844.00
2023-05-21T00:07:28.083Z,94844.00
2023-05-21T00:08:28.210Z,94842.00
2023-05-21T00:09:28.228Z,94844.00
2023-05-21T00:10:28.293Z,94844.00
2023-05-21T00:11:28.314Z,94844.00
2023-05-21T00:12:28.401Z,94840.00
2023-05-21T00:13:28.472Z,94840.00
2023-05-21T00:14:28.516Z,94840.00
2023-05-21T00:15:28.574Z,94840.00
2023-05-21T00:16:28.666Z,94840.00
2023-05-21T00:17:28.681Z,94838.00
2023-05-21T00:18:28.695Z,94840.00
2023-05-21T00:19:28.883Z,94842.00
2023-05-21T00:20:28.851Z,94840.00
2023-05-21T00:21:28.802Z,94842.00
2023-05-21T00:22:28.853Z,94842.00
2023-05-21T00:23:28.842Z,94842.00
2023-05-21T00:24:28.888Z,94840.00
2023-05-21T00:25:28.894Z,94838.00
2023-05-21T00:26:28.848Z,94838.00
2023-05-21T00:27:28.922Z,94838.00
2023-05-21T00:28:28.841Z,94838.00
2023-05-21T00:29:28.844Z,94836.00
2023-05-21T00:30:28.964Z,94834.00
2023-05-21T00:31:28.902Z,94838.00
2023-05-21T00:32:28.828Z,94842.00
2023-05-21T00:33:28.780Z,94846.00
2023-05-21T00:34:28.779Z,94844.00
2023-05-21T00:35:28.859Z,94844.00
2023-05-21T00:36:28.888Z,94844.00
2023-05-21T00:37:28.867Z,94840.00
2023-05-21T00:38:28.904Z,94844.00
2023-05-21T00:39:28.875Z,94842.00
2023-05-21T00:40:28.928Z,94840.00
2023-05-21T00:41:28.819Z,94842.00
2023-05-21T00:42:28.860Z,94842.00
2023-05-21T00:43:28.829Z,94838.00
2023-05-21T00:44:28.868Z,94838.00
2023-05-21T00:45:28.930Z,94834.00
2023-05-21T00:46:28.930Z,94834.00
2023-05-21T00:47:28.883Z,94838.00
2023-05-21T00:48:28.865Z,94840.00
2023-05-21T00:49:28.876Z,94838.00
2023-05-21T00:50:28.990Z,94844.00
2023-05-21T00:51:29.011Z,94840.00
2023-05-21T00:52:29.110Z,94840.00
2023-05-21T00:53:29.049Z,94842.00
2023-05-21T00:54:29.092Z,94838.00
2023-05-21T00:55:29.139Z,94838.00
2023-05-21T00:56:29.123Z,94836.00
2023-05-21T00:57:29.165Z,94836.00
2023-05-21T00:58:29.164Z,94834.00
2023-05-21T00:59:29.250Z,94836.00
2023-05-21T01:00:29.291Z,94842.00
2023-05-21T01:01:29.345Z,94844.00
2023-05-21T01:02:29.365Z,94846.00
2023-05-21T01:03:29.458Z,94842.00
2023-05-21T01:04:29.364Z,94842.00
2023-05-21T01:05:29.428Z,94846.00
2023-05-21T01:06:29.403Z,94842.00
2023-05-21T01:07:29.434Z,94836.00
2023-05-21T01:08:29.509Z,94838.00
2023-05-21T01:09:30.560Z,94838.00
2023-05-21T01:10:29.563Z,94838.00
2023-05-21T01:11:29.569Z,94838.00
2023-05-21T01:12:29.583Z,94838.00
2023-05-21T01:13:29.632Z,94836.00
2023-05-21T01:14:29.627Z,94834.00
2023-05-21T01:15:29.650Z,94840.00
2023-05-21T01:16:29.678Z,94840.00
2023-05-21T01:17:29.642Z,94838.00
2023-05-21T01:18:29.706Z,94836.00
2023-05-21T01:19:29.673Z,94832.00
2023-05-21T01:20:29.622Z,94832.00
2023-05-21T01:21:29.629Z,94832.00
2023-05-21T01:22:29.604Z,94834.00
2023-05-21T01:23:29.590Z,94834.00
2023-05-21T01:24:29.635Z,94831.00
2023-05-21T01:25:29.616Z,94832.00
2023-05-21T01:26:29.637Z,94836.00
2023-05-21T01:27:29.624Z,94834.00
2023-05-21T01:28:29.621Z,94832.00
2023-05-21T01:29:29.585Z,94834.00
2023-05-21T01:30:29.583Z,94834.00
2023-05-21T01:31:29.565Z,94840.00
2023-05-21T01:32:29.619Z,94844.00
2023-05-21T01:33:29.731Z,94838.00
2023-05-21T01:34:29.559Z,94836.00
2023-05-21T01:35:29.611Z,94832.00
2023-05-21T01:36:29.563Z,94832.00
2023-05-21T01:37:29.531Z,94831.00
2023-05-21T01:38:29.559Z,94831.00
2023-05-21T01:39:29.541Z,94834.00
2023-05-21T01:40:29.674Z,94827.00
2023-05-21T01:41:29.726Z,94829.00
2023-05-21T01:42:29.670Z,94829.00
2023-05-21T01:43:29.655Z,94827.00
2023-05-21T01:44:29.634Z,94829.00
2023-05-21T01:45:29.734Z,94825.00
2023-05-21T01:46:29.695Z,94823.00
2023-05-21T01:47:29.714Z,94821.00
2023-05-21T01:48:29.704Z,94823.00
2023-05-21T01:49:29.699Z,94827.00
2023-05-21T01:50:29.753Z,94821.00
2023-05-21T01:51:29.731Z,94823.00
2023-05-21T01:52:29.758Z,94817.00
2023-05-21T01:53:29.735Z,94821.00
2023-05-21T01:54:29.757Z,94821.00
2023-05-21T01:55:29.753Z,94821.00
2023-05-21T01:56:29.758Z,94821.00
2023-05-21T01:57:29.763Z,94823.00
2023-05-21T01:58:29.762Z,94821.00
2023-05-21T01:59:29.810Z,94821.00
2023-05-21T02:00:29.855Z,94823.00
2023-05-21T02:01:29.850Z,94823.00
2023-05-21T02:02:29.952Z,94827.00
2023-05-21T02:03:29.965Z,94827.00
2023-05-21T02:04:29.853Z,94831.00
2023-05-21T02:05:29.878Z,94825.00
2023-05-21T02:06:29.835Z,94825.00
2023-05-21T02:07:29.885Z,94825.00
2023-05-21T02:08:29.852Z,94825.00
2023-05-21T02:09:29.980Z,94829.00
2023-05-21T02:10:30.013Z,94831.00
2023-05-21T02:11:29.899Z,94829.00
2023-05-21T02:12:29.962Z,94831.00
2023-05-21T02:13:29.984Z,94836.00
2023-05-21T02:14:29.969Z,94836.00
2023-05-21T02:15:30.000Z,94836.00
2023-05-21T02:16:30.135Z,94834.00
2023-05-21T02:17:30.053Z,94836.00
2023-05-21T02:18:30.094Z,94834.00
2023-05-21T02:19:30.399Z,94832.00
2023-05-21T02:20:30.177Z,94834.00
2023-05-21T02:21:30.163Z,94834.00
2023-05-21T02:22:30.228Z,94834.00
2023-05-21T02:23:30.225Z,94838.00
2023-05-21T02:24:30.224Z,94834.00
2023-05-21T02:25:30.235Z,94838.00
2023-05-21T02:26:30.251Z,94838.00
2023-05-21T02:27:30.255Z,94838.00
2023-05-21T02:28:30.275Z,94836.00
2023-05-21T02:29:30.268Z,94836.00
2023-05-21T02:30:30.326Z,94834.00
2023-05-21T02:31:30.292Z,94838.00
2023-05-21T02:32:31.182Z,94836.00
2023-05-21T02:33:30.300Z,94834.00
2023-05-21T02:34:30.360Z,94831.00
2023-05-21T02:35:30.364Z,94832.00
2023-05-21T02:36:30.381Z,94829.00
2023-05-21T02:37:30.471Z,94831.00
2023-05-21T02:38:30.536Z,94825.00
2023-05-21T02:39:30.595Z,94827.00
2023-05-21T02:40:30.635Z,94825.00
2023-05-21T02:41:30.710Z,94821.00
2023-05-21T02:42:30.717Z,94819.00
2023-05-21T02:43:30.694Z,94819.00
2023-05-21T02:44:30.744Z,94819.00
2023-05-21T02:45:30.790Z,94819.00
2023-05-21T02:46:30.851Z,94817.00
2023-05-21T02:47:30.826Z,94817.00
2023-05-21T02:48:30.787Z,94819.00
2023-05-21T02:49:30.840Z,94815.00
2023-05-21T02:50:30.853Z,94813.00
2023-05-21T02:51:30.862Z,94815.00
2023-05-21T02:52:30.816Z,94813.00
2023-05-21T02:53:30.888Z,94817.00
2023-05-21T02:54:30.922Z,94817.00
2023-05-21T02:55:31.737Z,94819.00
2023-05-21T02:56:30.894Z,94821.00
2023-05-21T02:57:30.884Z,94821.00
2023-05-21T02:58:30.872Z,94813.00
2023-05-21T02:59:30.900Z,94817.00
2023-05-21T03:00:30.961Z,94815.00
2023-05-21T03:01:30.964Z,94817.00
2023-05-21T03:02:31.079Z,94817.00
2023-05-21T03:03:31.142Z,94817.00
2023-05-21T03:04:31.036Z,94819.00
2023-05-21T03:05:31.011Z,94817.00
2023-05-21T03:06:31.019Z,94821.00
2023-05-21T03:07:31.025Z,94823.00
2023-05-21T03:08:31.053Z,94825.00
2023-05-21T03:09:31.080Z,94825.00
2023-05-21T03:10:31.070Z,94825.00
2023-05-21T03:11:31.149Z,94825.00
2023-05-21T03:12:31.230Z,94829.00
2023-05-21T03:13:31.327Z,94831.00
2023-05-21T03:14:31.310Z,94827.00
2023-05-21T03:15:31.422Z,94829.00
2023-05-21T03:16:31.441Z,94829.00
2023-05-21T03:17:31.427Z,94827.00
2023-05-21T03:18:31.367Z,94832.00
2023-05-21T03:19:31.423Z,94836.00
2023-05-21T03:20:31.373Z,94831.00
2023-05-21T03:21:31.312Z,94831.00
2023-05-21T03:22:31.334Z,94831.00
2023-05-21T03:23:31.313Z,94832.00
2023-05-21T03:24:31.365Z,94834.00
2023-05-21T03:25:31.542Z,94836.00
2023-05-21T03:26:31.492Z,94831.00
2023-05-21T03:27:31.527Z,94831.00
2023-05-21T03:28:31.582Z,94832.00
2023-05-21T03:29:31.658Z,94831.00
2023-05-21T03:30:31.673Z,94832.00
2023-05-21T03:31:31.711Z,94832.00
2023-05-21T03:32:31.822Z,94832.00
2023-05-21T03:33:31.837Z,94834.00
2023-05-21T03:34:31.828Z,94831.00
2023-05-21T03:35:31.815Z,94832.00
2023-05-21T03:36:31.921Z,94831.00
2023-05-21T03:37:31.957Z,94834.00
2023-05-21T03:38:31.900Z,94836.00
2023-05-21T03:39:31.897Z,94834.00
2023-05-21T03:40:31.968Z,94836.00
2023-05-21T03:41:32.059Z,94842.00
2023-05-21T03:42:32.011Z,94842.00
2023-05-21T03:43:32.030Z,94844.00
2023-05-21T03:44:32.094Z,94842.00
2023-05-21T03:45:32.133Z,94846.00
2023-05-21T03:46:32.338Z,94848.00
2023-05-21T03:47:32.137Z,94842.00
2023-05-21T03:48:32.149Z,94840.00
2023-05-21T03:49:32.101Z,94836.00
2023-05-21T03:50:32.111Z,94838.00
2023-05-21T03:51:32.084Z,94836.00
2023-05-21T03:52:32.070Z,94838.00
2023-05-21T03:53:32.061Z,94840.00
2023-05-21T03:54:32.049Z,94838.00
2023-05-21T03:55:32.060Z,94840.00
2023-05-21T03:56:32.071Z,94836.00
2023-05-21T03:57:32.045Z,94840.00
2023-05-21T03:58:32.043Z,94840.00
2023-05-21T03:59:32.009Z,94844.00
2023-05-21T04:00:32.030Z,94840.00
2023-05-21T04:01:32.067Z,94836.00
2023-05-21T04:02:32.152Z,94832.00
2023-05-21T04:03:32.229Z,94840.00
2023-05-21T04:04:32.048Z,94846.00
2023-05-21T04:05:32.012Z,94850.00
2023-05-21T04:06:32.045Z,94846.00
2023-05-21T04:07:32.011Z,94846.00
2023-05-21T04:08:31.992Z,94850.00
2023-05-21T04:09:32.004Z,94852.00
2023-05-21T04:10:32.055Z,94854.00
2023-05-21T04:11:31.973Z,94852.00
2023-05-21T04:12:32.008Z,94846.00
2023-05-21T04:13:31.981Z,94838.00
2023-05-21T04:14:31.977Z,94844.00
2023-05-21T04:15:31.978Z,94854.00
2023-05-21T04:16:32.073Z,94864.00
2023-05-21T04:17:32.030Z,94866.00
2023-05-21T04:18:32.010Z,94866.00
2023-05-21T04:19:32.194Z,94862.00
2023-05-21T04:20:32.032Z,94858.00
2023-05-21T04:21:32.022Z,94860.00
2023-05-21T04:22:32.106Z,94864.00
2023-05-21T04:23:32.157Z,94872.00
2023-05-21T04:24:32.129Z,94878.00
2023-05-21T04:25:32.687Z,94876.00
2023-05-21T04:26:32.176Z,94876.00
2023-05-21T04:27:32.183Z,94872.00
2023-05-21T04:28:32.167Z,94872.00
2023-05-21T04:29:32.195Z,94872.00
2023-05-21T04:30:32.219Z,94874.00
2023-05-21T04:31:32.258Z,94874.00
2023-05-21T04:32:32.241Z,94878.00
2023-05-21T04:33:32.254Z,94878.00
2023-05-21T04:34:32.287Z,94872.00
2023-05-21T04:35:32.345Z,94870.00
2023-05-21T04:36:32.401Z,94870.00
2023-05-21T04:37:32.435Z,94868.00
2023-05-21T04:38:32.476Z,94870.00
2023-05-21T04:39:32.565Z,94870.00
2023-05-21T04:40:32.592Z,94868.00
2023-05-21T04:41:32.534Z,94870.00
2023-05-21T04:42:32.560Z,94870.00
2023-05-21T04:43:32.530Z,94872.00
2023-05-21T04:44:32.520Z,94868.00
2023-05-21T04:45:32.541Z,94862.00
2023-05-21T04:46:32.559Z,94862.00
2023-05-21T04:47:32.546Z,94866.00
2023-05-21T04:48:32.503Z,94862.00
2023-05-21T04:49:32.535Z,94866.00
2023-05-21T04:50:32.554Z,94866.00
2023-05-21T04:51:32.477Z,94864.00
2023-05-21T04:52:32.462Z,94868.00
2023-05-21T04:53:32.498Z,94866.00
2023-05-21T04:54:32.489Z,94864.00
2023-05-21T04:55:32.462Z,94860.00
2023-05-21T04:56:32.486Z,94860.00
2023-05-21T04:57:32.452Z,94862.00
2023-05-21T04:58:32.413Z,94860.00
2023-05-21T04:59:32.432Z,94860.00
2023-05-21T05:00:32.461Z,94862.00
2023-05-21T05:01:32.397Z,94862.00
2023-05-21T05:02:32.452Z,94866.00
2023-05-21T05:03:32.463Z,94866.00
2023-05-21T05:04:32.474Z,94866.00
2023-05-21T05:05:32.424Z,94864.00
2023-05-21T05:06:32.377Z,94868.00
2023-05-21T05:07:32.374Z,94862.00
2023-05-21T05:08:32.372Z,94860.00
2023-05-21T05:09:32.385Z,94858.00
2023-05-21T05:10:32.417Z,94852.00
2023-05-21T05:11:32.376Z,94854.00
2023-05-21T05:12:32.392Z,94856.00
2023-05-21T05:13:32.420Z,94856.00
2023-05-21T05:14:32.414Z,94852.00
2023-05-21T05:15:32.469Z,94852.00
2023-05-21T05:16:32.549Z,94852.00
2023-05-21T05:17:32.436Z,94850.00
2023-05-21T05:18:32.432Z,94852.00
2023-05-21T05:19:32.495Z,94852.00
2023-05-21T05:20:32.475Z,94852.00
2023-05-21T05:21:32.477Z,94852.00
2023-05-21T05:22:32.558Z,94850.00
2023-05-21T05:23:32.564Z,94848.00
2023-05-21T05:24:32.595Z,94850.00
2023-05-21T05:25:32.601Z,94848.00
2023-05-21T05:26:32.598Z,94850.00
2023-05-21T05:27:32.620Z,94846.00
2023-05-21T05:28:32.638Z,94844.00
2023-05-21T05:29:32.626Z,94848.00
2023-05-21T05:30:32.708Z,94848.00
2023-05-21T05:31:32.708Z,94848.00
2023-05-21T05:32:32.661Z,94848.00
2023-05-21T05:33:32.694Z,94848.00
2023-05-21T05:34:32.706Z,94848.00
2023-05-21T05:35:32.782Z,94848.00
2023-05-21T05:36:32.813Z,94848.00
2023-05-21T05:37:32.794Z,94848.00
2023-05-21T05:38:32.864Z,94846.00
2023-05-21T05:39:33.025Z,94846.00
2023-05-21T05:40:33.037Z,94846.00
2023-05-21T05:41:33.023Z,94842.00
2023-05-21T05:42:32.998Z,94836.00
2023-05-21T05:43:33.015Z,94840.00
2023-05-21T05:44:33.028Z,94844.00
2023-05-21T05:45:33.029Z,94838.00
2023-05-21T05:46:33.031Z,94838.00
2023-05-21T05:47:33.043Z,94836.00
2023-05-21T05:48:32.959Z,94840.00
2023-05-21T05:49:32.979Z,94836.00
2023-05-21T05:50:32.960Z,94838.00
2023-05-21T05:51:32.955Z,94838.00
2023-05-21T05:52:32.986Z,94840.00
2023-05-21T05:53:33.040Z,94840.00
2023-05-21T05:54:33.063Z,94842.00
2023-05-21T05:55:33.118Z,94840.00
2023-05-21T05:56:33.115Z,94842.00
2023-05-21T05:57:33.099Z,94846.00
2023-05-21T05:58:33.146Z,94846.00
2023-05-21T05:59:33.127Z,94846.00
2023-05-21T06:00:33.182Z,94844.00
2023-05-21T06:01:33.154Z,94848.00
2023-05-21T06:02:33.227Z,94846.00
2023-05-21T06:03:33.293Z,94848.00
2023-05-21T06:04:33.208Z,94844.00
2023-05-21T06:05:33.282Z,94846.00
2023-05-21T06:06:33.300Z,94852.00
2023-05-21T06:07:33.323Z,94848.00
2023-05-21T06:08:33.998Z,94844.00
2023-05-21T06:09:33.330Z,94840.00
2023-05-21T06:10:33.342Z,94846.00
2023-05-21T06:11:33.354Z,94840.00
2023-05-21T06:12:33.371Z,94838.00
2023-05-21T06:13:33.359Z,94842.00
2023-05-21T06:14:33.367Z,94838.00
2023-05-21T06:15:33.381Z,94838.00
2023-05-21T06:16:33.412Z,94844.00
2023-05-21T06:17:33.558Z,94842.00
2023-05-21T06:18:33.482Z,94842.00
2023-05-21T06:19:33.519Z,94834.00
2023-05-21T06:20:33.535Z,94836.00
2023-05-21T06:21:33.525Z,94840.00
2023-05-21T06:22:33.532Z,94834.00
2023-05-21T06:23:33.562Z,94832.00
2023-05-21T06:24:33.586Z,94831.00
2023-05-21T06:25:33.733Z,94827.00
2023-05-21T06:26:33.702Z,94823.00
2023-05-21T06:27:33.748Z,94823.00
2023-05-21T06:28:33.788Z,94825.00
2023-05-21T06:29:33.833Z,94821.00
2023-05-21T06:30:33.888Z,94825.00
2023-05-21T06:31:33.892Z,94825.00
2023-05-21T06:32:34.002Z,94821.00
2023-05-21T06:33:34.060Z,94821.00
2023-05-21T06:34:33.979Z,94823.00
2023-05-21T06:35:34.181Z,94817.00
2023-05-21T06:36:34.110Z,94817.00
2023-05-21T06:37:34.135Z,94819.00
2023-05-21T06:38:34.175Z,94817.00
2023-05-21T06:39:34.200Z,94815.00
2023-05-21T06:40:34.272Z,94813.00
2023-05-21T06:41:34.322Z,94813.00
2023-05-21T06:42:34.403Z,94815.00
2023-05-21T06:43:34.343Z,94819.00
2023-05-21T06:44:34.337Z,94811.00
2023-05-21T06:45:34.452Z,94811.00
2023-05-21T06:46:35.351Z,94811.00
2023-05-21T06:47:34.424Z,94813.00
2023-05-21T06:48:34.300Z,94815.00
2023-05-21T06:49:34.302Z,94815.00
2023-05-21T06:50:34.349Z,94815.00
2023-05-21T06:51:34.393Z,94821.00
2023-05-21T06:52:34.383Z,94821.00
2023-05-21T06:53:34.343Z,94819.00
2023-05-21T06:54:34.371Z,94819.00
2023-05-21T06:55:34.540Z,94821.00
2023-05-21T06:56:34.427Z,94819.00
2023-05-21T06:57:34.469Z,94819.00
2023-05-21T06:58:34.512Z,94817.00
2023-05-21T06:59:34.584Z,94821.00
2023-05-21T07:00:34.651Z,94817.00
2023-05-21T07:01:34.653Z,94819.00
2023-05-21T07:02:34.758Z,94821.00
2023-05-21T07:03:34.702Z,94819.00
2023-05-21T07:04:34.700Z,94821.00
2023-05-21T07:05:35.086Z,94825.00
2023-05-21T07:06:34.831Z,94823.00
2023-05-21T07:07:34.959Z,94821.00
2023-05-21T07:08:34.902Z,94819.00
2023-05-21T07:09:34.986Z,94821.00
2023-05-21T07:10:34.967Z,94817.00
2023-05-21T07:11:34.939Z,94819.00
2023-05-21T07:12:35.016Z,94817.00
2023-05-21T07:13:35.009Z,94819.00
2023-05-21T07:14:34.973Z,94813.00
2023-05-21T07:15:35.175Z,94813.00
2023-05-21T07:16:34.982Z,94813.00
2023-05-21T07:17:35.083Z,94813.00
2023-05-21T07:18:34.930Z,94813.00
2023-05-21T07:19:34.966Z,94811.00
2023-05-21T07:20:34.958Z,94811.00
2023-05-21T07:21:34.942Z,94811.00
2023-05-21T07:22:34.941Z,94815.00
2023-05-21T07:23:34.924Z,94807.00
2023-05-21T07:24:34.920Z,94803.00
2023-05-21T07:25:35.152Z,94805.00
2023-05-21T07:26:34.922Z,94801.00
2023-05-21T07:27:34.919Z,94801.00
2023-05-21T07:28:34.909Z,94795.00
2023-05-21T07:29:35.297Z,94795.00
2023-05-21T07:30:34.919Z,94795.00
2023-05-21T07:31:34.957Z,94793.00
2023-05-21T07:32:35.058Z,94789.00
2023-05-21T07:33:34.976Z,94787.00
2023-05-21T07:34:35.030Z,94789.00
2023-05-21T07:35:35.234Z,94785.00
2023-05-21T07:36:35.064Z,94783.00
2023-05-21T07:37:35.108Z,94783.00
2023-05-21T07:38:35.042Z,94783.00
2023-05-21T07:39:35.040Z,94785.00
2023-05-21T07:40:35.045Z,94783.00
2023-05-21T07:41:35.029Z,94783.00
2023-05-21T07:42:35.056Z,94780.00
2023-05-21T07:43:35.018Z,94780.00
2023-05-21T07:44:35.035Z,94778.00
2023-05-21T07:45:35.146Z,94772.00
2023-05-21T07:46:35.040Z,94776.00
2023-05-21T07:47:35.083Z,94774.00
2023-05-21T07:48:35.771Z,94774.00
2023-05-21T07:49:35.106Z,94780.00
2023-05-21T07:50:35.162Z,94780.00
2023-05-21T07:51:35.184Z,94780.00
2023-05-21T07:52:35.167Z,94781.00
2023-05-21T07:53:35.198Z,94778.00
2023-05-21T07:54:35.207Z,94776.00
2023-05-21T07:55:35.364Z,94770.00
2023-05-21T07:56:35.261Z,94760.00
2023-05-21T07:57:35.281Z,94768.00
2023-05-21T07:58:35.376Z,94762.00
2023-05-21T07:59:35.303Z,94764.00
2023-05-21T08:00:35.397Z,94764.00
2023-05-21T08:01:35.419Z,94762.00
2023-05-21T08:02:35.525Z,94760.00
2023-05-21T08:03:35.622Z,94760.00
2023-05-21T08:04:36.535Z,94760.00
2023-05-21T08:05:35.770Z,94760.00
2023-05-21T08:06:35.552Z,94756.00
2023-05-21T08:07:35.641Z,94756.00
2023-05-21T08:08:35.673Z,94758.00
2023-05-21T08:09:35.834Z,94752.00
2023-05-21T08:10:35.798Z,94752.00
2023-05-21T08:11:36.361Z,94754.00
2023-05-21T08:12:35.766Z,94754.00
2023-05-21T08:13:35.876Z,94754.00
2023-05-21T08:14:35.919Z,94754.00
2023-05-21T08:15:36.119Z,94752.00
2023-05-21T08:16:36.137Z,94756.00
2023-05-21T08:17:36.097Z,94758.00
2023-05-21T08:18:36.073Z,94756.00
2023-05-21T08:19:36.176Z,94756.00
2023-05-21T08:20:36.159Z,94752.00
2023-05-21T08:21:44.249Z,94748.00
2023-05-21T08:22:36.164Z,94754.00
2023-05-21T08:23:36.165Z,94752.00
2023-05-21T08:24:36.106Z,94754.00
2023-05-21T08:25:36.384Z,94754.00
2023-05-21T08:26:36.128Z,94752.00
2023-05-21T08:27:36.093Z,94750.00
2023-05-21T08:28:36.084Z,94744.00
2023-05-21T08:29:36.118Z,94746.00
2023-05-21T08:30:36.113Z,94744.00
2023-05-21T08:31:36.131Z,94742.00
2023-05-21T08:32:36.098Z,94738.00
2023-05-21T08:33:36.083Z,94730.00
2023-05-21T08:34:36.096Z,94727.00
2023-05-21T08:35:36.428Z,94727.00
2023-05-21T08:36:36.220Z,94729.00
2023-05-21T08:37:36.274Z,94727.00
2023-05-21T08:38:36.292Z,94730.00
2023-05-21T08:39:36.357Z,94730.00
2023-05-21T08:40:36.329Z,94732.00
2023-05-21T08:41:36.303Z,94729.00
2023-05-21T08:42:37.522Z,94730.00
2023-05-21T08:43:36.310Z,94727.00
2023-05-21T08:44:36.321Z,94732.00
2023-05-21T08:45:36.537Z,94729.00
2023-05-21T08:46:36.320Z,94721.00
2023-05-21T08:47:36.333Z,94721.00
2023-05-21T08:48:36.301Z,94723.00
2023-05-21T08:49:36.360Z,94717.00
2023-05-21T08:50:36.377Z,94721.00
2023-05-21T08:51:36.430Z,94719.00
2023-05-21T08:52:36.421Z,94719.00
2023-05-21T08:53:36.391Z,94717.00
2023-05-21T08:54:36.411Z,94719.00
2023-05-21T08:55:36.657Z,94717.00
2023-05-21T08:56:36.458Z,94717.00
2023-05-21T08:57:36.524Z,94715.00
2023-05-21T08:58:36.597Z,94717.00
2023-05-21T08:59:36.591Z,94719.00
2023-05-21T09:00:36.590Z,94719.00
2023-05-21T09:01:36.620Z,94717.00
2023-05-21T09:02:36.698Z,94717.00
2023-05-21T09:03:36.638Z,94713.00
2023-05-21T09:04:36.760Z,94713.00
2023-05-21T09:05:36.929Z,94711.00
2023-05-21T09:06:36.787Z,94709.00
2023-05-21T09:07:36.805Z,94709.00
2023-05-21T09:08:36.849Z,94707.00
2023-05-21T09:09:36.859Z,94703.00
2023-05-21T09:10:44.949Z,94705.00
2023-05-21T09:11:36.867Z,94705.00
2023-05-21T09:12:36.904Z,94703.00
2023-05-21T09:13:38.811Z,94709.00
2023-05-21T09:14:36.842Z,94713.00
2023-05-21T09:15:37.120Z,94713.00
2023-05-21T09:16:36.939Z,94711.00
2023-05-21T09:17:36.960Z,94705.00
2023-05-21T09:18:36.910Z,94701.00
2023-05-21T09:19:37.072Z,94707.00
2023-05-21T09:20:37.041Z,94707.00
2023-05-21T09:21:37.050Z,94707.00
2023-05-21T09:22:37.081Z,94709.00
2023-05-21T09:23:37.073Z,94707.00
2023-05-21T09:24:37.102Z,94709.00
2023-05-21T09:25:37.270Z,94709.00
2023-05-21T09:26:37.089Z,94707.00
2023-05-21T09:27:37.095Z,94709.00
2023-05-21T09:28:37.206Z,94705.00
2023-05-21T09:29:37.227Z,94709.00
2023-05-21T09:30:37.517Z,94713.00
2023-05-21T09:31:37.319Z,94707.00
2023-05-21T09:32:37.276Z,94705.00
2023-05-21T09:33:37.373Z,94709.00
2023-05-21T09:34:37.340Z,94711.00
2023-05-21T09:35:38.186Z,94707.00
2023-05-21T09:36:37.410Z,94717.00
2023-05-21T09:37:37.498Z,94709.00
2023-05-21T09:38:37.475Z,94711.00
2023-05-21T09:39:37.574Z,94715.00
2023-05-21T09:40:37.773Z,94721.00
2023-05-21T09:41:37.638Z,94721.00
2023-05-21T09:42:37.604Z,94723.00
2023-05-21T09:43:37.652Z,94725.00
2023-05-21T09:44:37.654Z,94725.00
2023-05-21T09:45:37.917Z,94725.00
2023-05-21T09:46:37.835Z,94727.00
2023-05-21T09:47:37.817Z,94723.00
2023-05-21T09:48:37.781Z,94725.00
2023-05-21T09:49:37.810Z,94721.00
2023-05-21T09:50:38.020Z,94723.00
2023-05-21T09:51:37.866Z,94713.00
2023-05-21T09:52:39.103Z,94719.00
2023-05-21T09:53:37.938Z,94717.00
2023-05-21T09:54:38.027Z,94717.00
2023-05-21T09:55:38.025Z,94715.00
2023-05-21T09:56:38.030Z,94717.00
2023-05-21T09:57:37.969Z,94725.00
2023-05-21T09:58:37.978Z,94721.00
2023-05-21T09:59:37.987Z,94719.00
2023-05-21T10:00:38.157Z,94715.00
2023-05-21T10:01:37.975Z,94723.00
2023-05-21T10:02:38.037Z,94721.00
2023-05-21T10:03:37.943Z,94719.00
2023-05-21T10:04:38.009Z,94715.00
2023-05-21T10:05:37.900Z,94721.00
2023-05-21T10:06:37.910Z,94721.00
2023-05-21T10:07:37.895Z,94719.00
2023-05-21T10:08:37.934Z,94721.00
2023-05-21T10:09:37.923Z,94717.00
2023-05-21T10:10:38.138Z,94715.00
2023-05-21T10:11:37.930Z,94715.00
2023-05-21T10:12:37.914Z,94717.00
2023-05-21T10:13:37.863Z,94715.00
2023-05-21T10:14:37.886Z,94711.00
2023-05-21T10:15:37.877Z,94709.00
2023-05-21T10:16:37.949Z,94707.00
2023-05-21T10:17:37.895Z,94707.00
2023-05-21T10:18:37.850Z,94707.00
2023-05-21T10:19:37.854Z,94707.00
2023-05-21T10:20:38.092Z,94717.00
2023-05-21T10:21:37.910Z,94711.00
2023-05-21T10:22:37.826Z,94713.00
2023-05-21T10:23:37.829Z,94709.00
2023-05-21T10:24:37.841Z,94703.00
2023-05-21T10:25:37.845Z,94695.00
2023-05-21T10:26:37.814Z,94703.00
2023-05-21T10:27:37.839Z,94707.00
2023-05-21T10:28:37.808Z,94703.00
2023-05-21T10:29:37.815Z,94697.00
2023-05-21T10:30:38.125Z,94695.00
2023-05-21T10:31:37.797Z,94701.00
2023-05-21T10:32:37.946Z,94693.00
2023-05-21T10:33:37.871Z,94697.00
2023-05-21T10:34:37.825Z,94693.00
2023-05-21T10:35:38.071Z,94689.00
2023-05-21T10:36:37.994Z,94687.00
2023-05-21T10:37:37.872Z,94685.00
2023-05-21T10:38:37.937Z,94676.00
2023-05-21T10:39:38.064Z,94682.00
2023-05-21T10:40:38.187Z,94680.00
2023-05-21T10:41:38.060Z,94680.00
2023-05-21T10:42:38.049Z,94678.00
2023-05-21T10:43:38.094Z,94676.00
2023-05-21T10:44:38.037Z,94678.00
2023-05-21T10:45:38.120Z,94678.00
2023-05-21T10:46:38.092Z,94674.00
2023-05-21T10:47:38.192Z,94682.00
2023-05-21T10:48:38.141Z,94680.00
2023-05-21T10:49:38.151Z,94676.00
2023-05-21T10:50:38.494Z,94670.00
2023-05-21T10:51:38.342Z,94668.00
2023-05-21T10:52:38.352Z,94668.00
2023-05-21T10:53:38.346Z,94666.00
2023-05-21T10:54:38.359Z,94668.00
2023-05-21T10:55:38.368Z,94668.00
2023-05-21T10:56:38.363Z,94670.00
2023-05-21T10:57:38.320Z,94670.00
2023-05-21T10:58:38.366Z,94668.00
2023-05-21T10:59:38.321Z,94670.00
2023-05-21T11:00:38.523Z,94668.00
2023-05-21T11:01:38.351Z,94666.00
2023-05-21T11:02:38.383Z,94662.00
2023-05-21T11:03:38.407Z,94666.00
2023-05-21T11:04:38.256Z,94662.00
2023-05-21T11:05:38.314Z,94658.00
2023-05-21T11:06:38.334Z,94658.00
2023-05-21T11:07:38.268Z,94658.00
2023-05-21T11:08:38.273Z,94656.00
2023-05-21T11:09:38.301Z,94662.00
2023-05-21T11:10:38.569Z,94660.00
2023-05-21T11:11:38.288Z,94662.00
2023-05-21T11:12:38.264Z,94660.00
2023-05-21T11:13:38.276Z,94662.00
2023-05-21T11:14:38.347Z,94662.00
2023-05-21T11:15:38.396Z,94658.00
2023-05-21T11:16:38.429Z,94658.00
2023-05-21T11:17:38.578Z,94662.00
2023-05-21T11:18:38.495Z,94660.00
2023-05-21T11:19:38.833Z,94656.00
2023-05-21T11:20:38.799Z,94660.00
2023-05-21T11:21:38.583Z,94662.00
2023-05-21T11:22:38.601Z,94662.00
2023-05-21T11:23:38.692Z,94662.00
2023-05-21T11:24:38.708Z,94662.00
2023-05-21T11:25:38.723Z,94658.00
2023-05-21T11:26:38.794Z,94658.00
2023-05-21T11:27:38.783Z,94660.00
2023-05-21T11:28:38.800Z,94656.00
2023-05-21T11:29:38.883Z,94666.00
2023-05-21T11:30:40.864Z,94666.00
2023-05-21T11:31:39.106Z,94664.00
2023-05-21T11:32:38.928Z,94656.00
2023-05-21T11:33:38.878Z,94662.00
2023-05-21T11:34:38.922Z,94656.00
2023-05-21T11:35:38.936Z,94662.00
2023-05-21T11:36:38.981Z,94660.00
2023-05-21T11:37:39.004Z,94660.00
2023-05-21T11:38:39.065Z,94660.00
2023-05-21T11:39:39.010Z,94658.00
2023-05-21T11:40:39.086Z,94658.00
2023-05-21T11:41:39.086Z,94660.00
2023-05-21T11:42:39.100Z,94658.00
2023-05-21T11:43:39.113Z,94654.00
2023-05-21T11:44:39.205Z,94656.00